N31NC KTEB-CYHZ
Flight info
| Callsign | N31NC |
|---|---|
| Flight time | N/A |
| Altitude | 37000 |
| Route | BREZY V39 CMK/N0469F370 DCT MERIT DCT HFD DCT PUT DCT BOS DCT TUSKY ETGAR PEGGY5 |
| Aircraft | CL60/M-SBDE1E2E3FGHIJ1J4J5J7M3RWXYZ/LB1V1D1 |
Departure
| Time | N/A |
|---|---|
| Airport | Teterboro Airport (KTEB) |
Arrival
| Time | 2026-05-05 00:25 |
|---|---|
| Airport | Halifax / Stanfield International Airport (CYHZ) |
| Time | Latitude | Longitude | Altitude | Speed | Heading |
|---|---|---|---|---|---|
| 2026-05-04 23:59 | 44.11418 | -66.05849 | 36319 ft | 513 kts | 47° |
| 2026-05-05 00:00 | 44.13663 | -66.01959 | 35930 ft | 506 kts | 47° |
| 2026-05-05 00:00 | 44.15099 | -65.99457 | 35680 ft | 502 kts | 47° |
| 2026-05-05 00:00 | 44.17722 | -65.94070 | 35184 ft | 504 kts | 58° |
| 2026-05-05 00:00 | 44.19154 | -65.89629 | 34798 ft | 506 kts | 68° |
| 2026-05-05 00:01 | 44.20089 | -65.84955 | 34414 ft | 506 kts | 77° |
| 2026-05-05 00:01 | 44.20528 | -65.80083 | 33939 ft | 505 kts | 85° |
| 2026-05-05 00:01 | 44.20617 | -65.75238 | 33329 ft | 507 kts | 85° |
| 2026-05-05 00:01 | 44.21005 | -65.70409 | 32720 ft | 504 kts | 76° |
| 2026-05-05 00:02 | 44.21570 | -65.65642 | 32230 ft | 501 kts | 76° |
| 2026-05-05 00:02 | 44.22102 | -65.60828 | 31782 ft | 496 kts | 74° |
| 2026-05-05 00:02 | 44.22738 | -65.56193 | 31313 ft | 490 kts | 71° |
| 2026-05-05 00:02 | 44.23408 | -65.51533 | 30631 ft | 488 kts | 71° |
| 2026-05-05 00:03 | 44.24062 | -65.46950 | 29957 ft | 484 kts | 71° |
| 2026-05-05 00:03 | 44.24714 | -65.42375 | 29465 ft | 476 kts | 71° |
| 2026-05-05 00:03 | 44.25346 | -65.37898 | 29220 ft | 469 kts | 71° |
| 2026-05-05 00:03 | 44.25978 | -65.33469 | 28969 ft | 475 kts | 72° |
| 2026-05-05 00:04 | 44.26627 | -65.28896 | 28722 ft | 480 kts | 72° |
| 2026-05-05 00:04 | 44.27272 | -65.24324 | 28476 ft | 480 kts | 72° |
| 2026-05-05 00:04 | 44.27911 | -65.19775 | 28233 ft | 479 kts | 72° |
| 2026-05-05 00:04 | 44.28544 | -65.15250 | 27985 ft | 478 kts | 73° |
| 2026-05-05 00:05 | 44.29175 | -65.10730 | 27730 ft | 477 kts | 73° |
| 2026-05-05 00:05 | 44.29805 | -65.06200 | 27481 ft | 476 kts | 73° |
| 2026-05-05 00:05 | 44.30438 | -65.01644 | 27231 ft | 480 kts | 73° |
| 2026-05-05 00:05 | 44.31074 | -64.97051 | 26982 ft | 484 kts | 73° |
| 2026-05-05 00:06 | 44.31708 | -64.92439 | 26731 ft | 484 kts | 74° |
| 2026-05-05 00:06 | 44.32320 | -64.87865 | 26485 ft | 483 kts | 74° |
| 2026-05-05 00:06 | 44.32950 | -64.83270 | 26240 ft | 482 kts | 74° |
| 2026-05-05 00:06 | 44.33583 | -64.78649 | 25992 ft | 481 kts | 74° |
| 2026-05-05 00:07 | 44.34199 | -64.74127 | 25746 ft | 479 kts | 74° |
| 2026-05-05 00:07 | 44.34825 | -64.69522 | 25494 ft | 477 kts | 74° |
| 2026-05-05 00:07 | 44.35437 | -64.65009 | 25246 ft | 476 kts | 74° |
| 2026-05-05 00:07 | 44.36044 | -64.60512 | 24758 ft | 478 kts | 74° |
| 2026-05-05 00:08 | 44.36655 | -64.55955 | 24148 ft | 474 kts | 75° |
| 2026-05-05 00:08 | 44.37388 | -64.51524 | 23441 ft | 464 kts | 64° |
| 2026-05-05 00:08 | 44.38657 | -64.47459 | 22734 ft | 455 kts | 58° |
| 2026-05-05 00:08 | 44.39982 | -64.43452 | 22137 ft | 449 kts | 59° |
| 2026-05-05 00:09 | 44.41277 | -64.39507 | 21513 ft | 444 kts | 59° |
| 2026-05-05 00:09 | 44.42549 | -64.35628 | 20942 ft | 441 kts | 59° |
| 2026-05-05 00:09 | 44.43811 | -64.31778 | 20356 ft | 439 kts | 60° |
| 2026-05-05 00:09 | 44.45084 | -64.27889 | 19767 ft | 437 kts | 60° |
| 2026-05-05 00:10 | 44.46348 | -64.24017 | 19184 ft | 434 kts | 60° |
| 2026-05-05 00:10 | 44.47590 | -64.20207 | 18617 ft | 431 kts | 60° |
| 2026-05-05 00:10 | 44.48819 | -64.16431 | 18065 ft | 428 kts | 61° |
| 2026-05-05 00:10 | 44.50050 | -64.12640 | 17562 ft | 422 kts | 61° |
| 2026-05-05 00:11 | 44.51256 | -64.08926 | 17126 ft | 425 kts | 61° |
| 2026-05-05 00:11 | 44.52473 | -64.05170 | 16547 ft | 420 kts | 61° |
| 2026-05-05 00:11 | 44.53670 | -64.01469 | 15979 ft | 417 kts | 62° |
| 2026-05-05 00:11 | 44.54855 | -63.97802 | 15430 ft | 414 kts | 62° |
| 2026-05-05 00:12 | 44.56039 | -63.94133 | 14883 ft | 411 kts | 62° |
| 2026-05-05 00:12 | 44.57209 | -63.90501 | 14340 ft | 407 kts | 62° |
| 2026-05-05 00:12 | 44.58373 | -63.86883 | 13800 ft | 405 kts | 63° |
| 2026-05-05 00:12 | 44.59514 | -63.83330 | 13273 ft | 402 kts | 62° |
| 2026-05-05 00:13 | 44.60651 | -63.79783 | 12738 ft | 396 kts | 62° |
| 2026-05-05 00:13 | 44.61769 | -63.76291 | 12223 ft | 395 kts | 62° |
| 2026-05-05 00:13 | 44.62881 | -63.72816 | 11706 ft | 388 kts | 62° |
| 2026-05-05 00:13 | 44.63970 | -63.69403 | 11209 ft | 380 kts | 62° |
| 2026-05-05 00:14 | 44.65044 | -63.66034 | 10682 ft | 374 kts | 62° |
| 2026-05-05 00:14 | 44.66150 | -63.62796 | 10205 ft | 364 kts | 53° |
| 2026-05-05 00:14 | 44.67750 | -63.60282 | 10038 ft | 333 kts | 32° |
| 2026-05-05 00:14 | 44.69529 | -63.58321 | 9974 ft | 318 kts | 29° |
| 2026-05-05 00:15 | 44.71270 | -63.56421 | 9740 ft | 316 kts | 29° |
| 2026-05-05 00:15 | 44.72988 | -63.54545 | 9493 ft | 315 kts | 29° |
| 2026-05-05 00:15 | 44.74728 | -63.52642 | 9243 ft | 314 kts | 29° |
| 2026-05-05 00:15 | 44.76445 | -63.50763 | 8986 ft | 312 kts | 29° |
| 2026-05-05 00:16 | 44.78136 | -63.48911 | 8743 ft | 311 kts | 29° |
| 2026-05-05 00:16 | 44.79855 | -63.47028 | 8493 ft | 310 kts | 29° |
| 2026-05-05 00:16 | 44.81554 | -63.45166 | 8239 ft | 312 kts | 29° |
| 2026-05-05 00:16 | 44.83296 | -63.43256 | 7980 ft | 311 kts | 29° |
| 2026-05-05 00:17 | 44.84963 | -63.41418 | 7658 ft | 305 kts | 29° |
| 2026-05-05 00:17 | 44.86638 | -63.39573 | 7259 ft | 302 kts | 29° |
| 2026-05-05 00:17 | 44.88276 | -63.37770 | 6858 ft | 300 kts | 29° |
| 2026-05-05 00:17 | 44.89925 | -63.35993 | 6375 ft | 298 kts | 26° |
| 2026-05-05 00:18 | 44.91622 | -63.34297 | 5755 ft | 304 kts | 30° |
| 2026-05-05 00:18 | 44.93270 | -63.32454 | 5387 ft | 298 kts | 31° |
| 2026-05-05 00:18 | 44.94924 | -63.30843 | 5199 ft | 276 kts | 15° |
| 2026-05-05 00:18 | 44.96696 | -63.30259 | 4845 ft | 250 kts | 350° |
| 2026-05-05 00:19 | 44.98312 | -63.30654 | 4372 ft | 229 kts | 329° |
| 2026-05-05 00:19 | 44.99634 | -63.31736 | 3860 ft | 215 kts | 312° |
| 2026-05-05 00:19 | 45.00597 | -63.33232 | 3582 ft | 196 kts | 299° |
| 2026-05-05 00:19 | 45.01349 | -63.34768 | 3333 ft | 186 kts | 294° |
| 2026-05-05 00:20 | 45.01640 | -63.36476 | 3081 ft | 175 kts | 265° |
| 2026-05-05 00:20 | 45.01202 | -63.38064 | 3145 ft | 182 kts | 240° |
| 2026-05-05 00:20 | 45.00270 | -63.39233 | 3209 ft | 174 kts | 223° |
| 2026-05-05 00:20 | 44.99273 | -63.40147 | 3115 ft | 166 kts | 223° |
| 2026-05-05 00:21 | 44.98341 | -63.41065 | 2808 ft | 160 kts | 224° |
| 2026-05-05 00:21 | 44.97455 | -63.41938 | 2547 ft | 152 kts | 224° |
| 2026-05-05 00:21 | 44.96595 | -63.42792 | 2348 ft | 149 kts | 224° |
| 2026-05-05 00:21 | 44.95791 | -63.43581 | 2164 ft | 136 kts | 223° |
| 2026-05-05 00:22 | 44.95027 | -63.44337 | 1979 ft | 129 kts | 224° |
| 2026-05-05 00:22 | 44.94315 | -63.45028 | 1827 ft | 119 kts | 223° |
| 2026-05-05 00:22 | 44.93652 | -63.45667 | 1503 ft | 110 kts | 223° |
| 2026-05-05 00:22 | 44.93036 | -63.46287 | 1345 ft | 110 kts | 225° |
| 2026-05-05 00:23 | 44.92425 | -63.46888 | 1232 ft | 106 kts | 222° |
| 2026-05-05 00:23 | 44.91815 | -63.47512 | 1191 ft | 110 kts | 224° |
| 2026-05-05 00:23 | 44.91191 | -63.48140 | 1041 ft | 110 kts | 223° |
| 2026-05-05 00:23 | 44.90569 | -63.48762 | 884 ft | 110 kts | 221° |
| 2026-05-05 00:24 | 44.89936 | -63.49400 | 773 ft | 111 kts | 222° |
| 2026-05-05 00:24 | 44.89292 | -63.50031 | 614 ft | 114 kts | 219° |
| 2026-05-05 00:24 | 44.88646 | -63.50672 | 473 ft | 112 kts | 216° |
| 2026-05-05 00:24 | 44.88088 | -63.51226 | 453 ft | 86 kts | 215° |
| 2026-05-05 00:25 | 44.87741 | -63.51566 | 458 ft | 49 kts | 215° |
| 2026-05-05 00:25 | 44.87508 | -63.51802 | 463 ft | 28 kts | 226° |
| 2026-05-05 00:25 | 44.87444 | -63.51967 | 466 ft | 15 kts | 260° |
| 2026-05-05 00:25 | 44.87463 | -63.52076 | 466 ft | 0 kts | 301° |
| 2026-05-05 00:26 | 44.87474 | -63.52100 | 466 ft | 9 kts | 306° |
| 2026-05-05 00:26 | 44.87539 | -63.52164 | 465 ft | 13 kts | 320° |
| 2026-05-05 00:26 | 44.87621 | -63.52190 | 463 ft | 8 kts | 26° |
| 2026-05-05 00:27 | 44.87674 | -63.52139 | 463 ft | 6 kts | 36° |
| 2026-05-05 00:27 | 44.87677 | -63.52137 | 463 ft | 0 kts | 35° |